createdAt,value
2022-10-01T00:00:53.356Z,96.91
2022-10-01T00:03:23.633Z,97.21
2022-10-01T00:06:00.187Z,97.03
2022-10-01T00:08:28.487Z,97.13
2022-10-01T00:10:56.227Z,96.92
2022-10-01T00:13:24.216Z,97.01
2022-10-01T00:15:52.018Z,96.90
2022-10-01T00:18:19.812Z,96.87
2022-10-01T00:20:48.903Z,96.89
2022-10-01T00:23:16.793Z,97.00
2022-10-01T00:25:44.620Z,97.07
2022-10-01T00:28:13.062Z,97.01
2022-10-01T00:30:48.077Z,96.97
2022-10-01T00:33:15.858Z,96.69
2022-10-01T00:35:43.554Z,97.11
2022-10-01T00:38:14.057Z,97.03
2022-10-01T00:40:42.283Z,97.13
2022-10-01T00:43:23.046Z,97.75
2022-10-01T00:45:51.561Z,97.88
2022-10-01T00:48:19.482Z,98.13
2022-10-01T00:50:59.981Z,98.01
2022-10-01T00:53:29.381Z,97.95
2022-10-01T00:56:00.030Z,98.32
2022-10-01T00:58:28.269Z,98.00
2022-10-01T01:01:08.125Z,98.09
2022-10-01T01:03:36.061Z,97.75
2022-10-01T01:06:04.310Z,97.95
2022-10-01T01:08:33.433Z,98.31
2022-10-01T01:11:12.230Z,98.36
2022-10-01T01:13:50.251Z,98.43
2022-10-01T01:16:26.032Z,98.44
2022-10-01T01:19:01.843Z,98.83
2022-10-01T01:21:33.561Z,98.65
2022-10-01T01:24:43.753Z,98.54
2022-10-01T01:27:29.848Z,98.69
2022-10-01T01:30:15.027Z,98.60
2022-10-01T01:32:50.574Z,98.86
2022-10-01T01:35:24.218Z,98.57
2022-10-01T01:37:57.297Z,98.42
2022-10-01T01:40:32.729Z,98.39
2022-10-01T01:43:05.493Z,98.32
2022-10-01T01:45:38.405Z,98.09
2022-10-01T01:48:09.882Z,98.10
2022-10-01T01:50:43.411Z,98.13
2022-10-01T01:53:12.314Z,98.07
2022-10-01T01:55:40.573Z,98.03
2022-10-01T01:58:08.942Z,97.75
2022-10-01T02:00:44.062Z,97.55
2022-10-01T02:03:12.161Z,97.46
2022-10-01T02:05:45.581Z,97.20
2022-10-01T02:08:37.998Z,97.65
2022-10-01T02:11:16.739Z,97.09
2022-10-01T02:13:52.797Z,97.17
2022-10-01T02:16:28.639Z,97.34
2022-10-01T02:19:01.716Z,97.31
2022-10-01T02:21:34.313Z,97.31
2022-10-01T02:24:08.461Z,97.67
2022-10-01T02:26:38.178Z,97.29
2022-10-01T02:29:09.288Z,97.72
2022-10-01T02:31:38.848Z,97.53
2022-10-01T02:34:12.398Z,97.48
2022-10-01T02:36:42.613Z,97.49
2022-10-01T02:39:12.939Z,97.80
2022-10-01T02:41:43.768Z,97.52
2022-10-01T02:44:15.919Z,97.71
2022-10-01T02:46:49.662Z,97.54
2022-10-01T02:49:17.651Z,97.76
2022-10-01T02:51:56.007Z,97.75
2022-10-01T02:54:30.071Z,97.59
2022-10-01T02:57:16.766Z,97.44
2022-10-01T02:59:44.540Z,97.56
2022-10-01T03:02:13.848Z,97.62
2022-10-01T03:04:41.715Z,97.77
2022-10-01T03:07:09.581Z,97.57
2022-10-01T03:09:37.818Z,97.52
2022-10-01T03:12:06.572Z,97.46
2022-10-01T03:14:34.335Z,97.54
2022-10-01T03:17:02.091Z,97.69
2022-10-01T03:19:31.249Z,97.65
2022-10-01T03:21:59.041Z,97.73
2022-10-01T03:24:26.803Z,97.37
2022-10-01T03:26:55.937Z,97.20
2022-10-01T03:29:23.893Z,97.21
2022-10-01T03:31:52.361Z,96.91
2022-10-01T03:34:20.591Z,97.06
2022-10-01T03:36:51.904Z,97.25
2022-10-01T03:39:20.084Z,96.60
2022-10-01T03:41:47.872Z,96.55
2022-10-01T03:44:15.581Z,96.13
2022-10-01T03:46:43.833Z,95.94
2022-10-01T03:49:11.614Z,96.20
2022-10-01T03:51:39.314Z,96.08
2022-10-01T03:54:09.414Z,95.13
2022-10-01T03:56:37.770Z,95.44
2022-10-01T03:59:05.561Z,95.26
2022-10-01T04:01:42.490Z,95.36
2022-10-01T04:04:10.557Z,95.73
2022-10-01T04:06:38.359Z,95.80
2022-10-01T04:09:09.694Z,96.49
2022-10-01T04:11:37.697Z,96.95
2022-10-01T04:14:05.686Z,97.52
2022-10-01T04:16:36.482Z,98.27
2022-10-01T04:19:04.612Z,98.54
2022-10-01T04:21:33.140Z,98.77
2022-10-01T04:24:03.044Z,99.50
2022-10-01T04:26:32.082Z,99.73
2022-10-01T04:28:59.749Z,100.00
2022-10-01T04:31:27.615Z,100.00
2022-10-01T04:33:57.228Z,100.00
2022-10-01T04:36:26.259Z,100.00
2022-10-01T04:38:57.858Z,100.00
2022-10-01T04:41:26.413Z,100.00
2022-10-01T04:43:55.563Z,100.00
2022-10-01T04:46:23.264Z,100.00
2022-10-01T04:48:51.041Z,100.00
2022-10-01T04:51:19.019Z,100.00
2022-10-01T04:53:46.759Z,100.00
2022-10-01T04:56:14.457Z,100.00
2022-10-01T04:58:42.282Z,100.00
2022-10-01T05:01:11.394Z,100.00
2022-10-01T05:03:39.338Z,100.00
2022-10-01T05:06:07.224Z,100.00
2022-10-01T05:08:34.992Z,100.00
2022-10-01T05:11:03.219Z,100.00
2022-10-01T05:13:31.809Z,100.00
2022-10-01T05:15:59.777Z,100.00
2022-10-01T05:18:28.952Z,100.00
2022-10-01T05:20:56.658Z,100.00
2022-10-01T05:23:24.420Z,100.00
2022-10-01T05:25:52.177Z,100.00
2022-10-01T05:28:22.681Z,100.00
2022-10-01T05:30:51.336Z,100.00
2022-10-01T05:33:19.123Z,100.00
2022-10-01T05:35:48.185Z,100.00
2022-10-01T05:38:15.932Z,100.00
2022-10-01T05:40:46.475Z,100.00
2022-10-01T05:43:14.950Z,100.00
2022-10-01T05:45:43.279Z,100.00
2022-10-01T05:48:11.091Z,100.00
2022-10-01T05:50:41.004Z,100.00
2022-10-01T05:53:14.041Z,100.00
2022-10-01T05:55:41.822Z,100.00
2022-10-01T05:58:12.098Z,100.00
2022-10-01T06:00:41.228Z,100.00
2022-10-01T06:03:12.599Z,100.00
2022-10-01T06:05:40.637Z,100.00
2022-10-01T06:08:10.701Z,100.00
2022-10-01T06:10:39.094Z,100.00
2022-10-01T06:13:07.222Z,100.00
2022-10-01T06:15:37.676Z,100.00
2022-10-01T06:18:06.588Z,100.00
2022-10-01T06:20:37.529Z,100.00
2022-10-01T06:23:07.401Z,100.00
2022-10-01T06:25:38.405Z,100.00
2022-10-01T06:28:10.160Z,100.00
2022-10-01T06:30:44.060Z,100.00
2022-10-01T06:33:13.732Z,100.00
2022-10-01T06:35:43.776Z,100.00
2022-10-01T06:38:12.387Z,100.00
2022-10-01T06:40:42.301Z,100.00
2022-10-01T06:43:10.670Z,100.00
2022-10-01T06:45:40.682Z,100.00
2022-10-01T06:48:08.503Z,100.00
2022-10-01T06:50:43.321Z,100.00
2022-10-01T06:53:10.432Z,100.00
2022-10-01T06:55:38.933Z,100.00
2022-10-01T06:58:10.858Z,100.00
2022-10-01T07:00:39.801Z,100.00
2022-10-01T07:03:10.884Z,100.00
2022-10-01T07:05:39.432Z,100.00
2022-10-01T07:08:08.427Z,100.00
2022-10-01T07:10:37.464Z,100.00
2022-10-01T07:13:11.501Z,100.00
2022-10-01T07:15:39.833Z,100.00
2022-10-01T07:18:09.544Z,100.00
2022-10-01T07:20:39.896Z,100.00
2022-10-01T07:23:08.662Z,100.00
2022-10-01T07:25:36.435Z,100.00
2022-10-01T07:28:06.654Z,100.00
2022-10-01T07:30:35.850Z,100.00
2022-10-01T07:33:03.513Z,100.00
2022-10-01T07:35:31.261Z,100.00
2022-10-01T07:37:58.969Z,100.00
2022-10-01T07:40:27.494Z,100.00
2022-10-01T07:42:56.819Z,100.00
2022-10-01T07:45:30.913Z,100.00
2022-10-01T07:48:02.067Z,100.00
2022-10-01T07:50:31.441Z,100.00
2022-10-01T07:53:00.147Z,100.00
2022-10-01T07:55:37.142Z,100.00
2022-10-01T07:58:05.609Z,100.00
2022-10-01T08:00:34.762Z,100.00
2022-10-01T08:03:03.884Z,100.00
2022-10-01T08:05:44.065Z,100.00
2022-10-01T08:08:11.799Z,100.00
2022-10-01T08:10:39.990Z,100.00
2022-10-01T08:13:14.584Z,100.00
2022-10-01T08:15:43.219Z,100.00
2022-10-01T08:18:12.863Z,100.00
2022-10-01T08:20:41.017Z,100.00
2022-10-01T08:23:10.356Z,100.00
2022-10-01T08:25:38.943Z,100.00
2022-10-01T08:28:07.483Z,100.00
2022-10-01T08:30:44.099Z,100.00
2022-10-01T08:33:14.567Z,100.00
2022-10-01T08:35:43.570Z,100.00
2022-10-01T08:38:12.282Z,100.00
2022-10-01T08:40:45.832Z,100.00
2022-10-01T08:43:30.278Z,100.00
2022-10-01T08:46:01.881Z,100.00
2022-10-01T08:48:41.054Z,100.00
2022-10-01T08:51:13.398Z,100.00
2022-10-01T08:53:46.304Z,100.00
2022-10-01T08:56:22.761Z,100.00
2022-10-01T08:58:58.062Z,100.00
2022-10-01T09:01:26.064Z,100.00
2022-10-01T09:03:55.792Z,100.00
2022-10-01T09:06:26.225Z,100.00
2022-10-01T09:09:10.583Z,100.00
2022-10-01T09:11:50.609Z,100.00
2022-10-01T09:14:35.771Z,100.00
2022-10-01T09:17:10.821Z,100.00
2022-10-01T09:19:56.964Z,100.00
2022-10-01T09:22:32.796Z,100.00
2022-10-01T09:25:10.974Z,100.00
2022-10-01T09:27:39.450Z,100.00
2022-10-01T09:30:12.575Z,100.00
2022-10-01T09:32:44.316Z,100.00
2022-10-01T09:35:25.179Z,100.00
2022-10-01T09:37:57.937Z,100.00
2022-10-01T09:40:34.876Z,100.00
2022-10-01T09:43:03.788Z,100.00
2022-10-01T09:45:31.545Z,100.00
2022-10-01T09:48:06.102Z,100.00
2022-10-01T09:50:40.971Z,100.00
2022-10-01T09:53:17.082Z,100.00
2022-10-01T09:55:50.545Z,100.00
2022-10-01T09:58:22.279Z,100.00
2022-10-01T10:00:51.629Z,100.00
2022-10-01T10:03:28.701Z,100.00
2022-10-01T10:05:59.872Z,100.00
2022-10-01T10:08:30.980Z,100.00
2022-10-01T10:11:01.519Z,100.00
2022-10-01T10:13:35.219Z,100.00
2022-10-01T10:16:11.057Z,100.00
2022-10-01T10:18:40.738Z,100.00
2022-10-01T10:21:16.292Z,100.00
2022-10-01T10:23:52.207Z,100.00
2022-10-01T10:26:22.721Z,100.00
2022-10-01T10:28:50.545Z,100.00
2022-10-01T10:31:21.029Z,100.00
2022-10-01T10:33:52.798Z,100.00
2022-10-01T10:36:27.288Z,100.00
2022-10-01T10:38:55.255Z,100.00
2022-10-01T10:41:26.392Z,100.00
2022-10-01T10:43:59.089Z,100.00
2022-10-01T10:46:32.078Z,100.00
2022-10-01T10:49:08.601Z,100.00
2022-10-01T10:51:53.820Z,100.00
2022-10-01T10:54:29.284Z,100.00
2022-10-01T10:57:02.237Z,100.00
2022-10-01T10:59:32.831Z,100.00
2022-10-01T11:02:02.349Z,100.00
2022-10-01T11:04:42.636Z,100.00
2022-10-01T11:07:14.724Z,100.00
2022-10-01T11:09:54.558Z,100.00
2022-10-01T11:12:36.335Z,100.00
2022-10-01T11:15:27.001Z,100.00
2022-10-01T11:18:10.604Z,100.00
2022-10-01T11:20:50.622Z,100.00
2022-10-01T11:23:54.909Z,100.00
2022-10-01T11:26:29.602Z,100.00
2022-10-01T11:29:11.017Z,100.00
2022-10-01T11:31:49.598Z,100.00
2022-10-01T11:34:37.823Z,100.00
2022-10-01T11:37:16.583Z,100.00
2022-10-01T11:39:48.646Z,100.00
2022-10-01T11:42:22.148Z,100.00
2022-10-01T11:45:11.810Z,100.00
2022-10-01T11:47:44.863Z,100.00
2022-10-01T11:50:18.489Z,100.00
2022-10-01T11:52:53.716Z,100.00
2022-10-01T11:55:56.055Z,100.00
2022-10-01T11:58:49.146Z,100.00
2022-10-01T12:01:26.021Z,100.00
2022-10-01T12:04:04.824Z,100.00
2022-10-01T12:06:38.037Z,100.00
2022-10-01T12:09:14.101Z,100.00
2022-10-01T12:11:49.440Z,100.00
2022-10-01T12:14:20.915Z,100.00
2022-10-01T12:16:55.981Z,100.00
2022-10-01T12:19:27.772Z,100.00
2022-10-01T12:22:00.692Z,100.00
2022-10-01T12:24:31.700Z,100.00
2022-10-01T12:27:26.751Z,100.00
2022-10-01T12:30:12.998Z,99.79
2022-10-01T12:33:07.899Z,98.01
2022-10-01T12:35:53.379Z,96.98
2022-10-01T12:38:36.156Z,96.11
2022-10-01T12:41:15.454Z,95.21
2022-10-01T12:44:10.470Z,95.53
2022-10-01T12:46:45.547Z,94.98
2022-10-01T12:49:24.250Z,95.07
2022-10-01T12:52:00.851Z,95.86
2022-10-01T12:54:57.392Z,96.23
2022-10-01T12:57:43.440Z,96.35
2022-10-01T13:00:19.148Z,97.11
2022-10-01T13:03:31.477Z,97.36
2022-10-01T13:06:12.781Z,97.16
2022-10-01T13:08:53.431Z,97.12
2022-10-01T13:11:37.403Z,97.90
2022-10-01T13:14:07.503Z,97.96
2022-10-01T13:16:43.850Z,98.71
2022-10-01T13:19:18.029Z,98.77
2022-10-01T13:22:07.845Z,98.61
2022-10-01T13:25:00.663Z,98.63
2022-10-01T13:27:36.694Z,98.48
2022-10-01T13:30:07.733Z,99.27
2022-10-01T13:32:51.909Z,99.27
2022-10-01T13:35:41.111Z,99.86
2022-10-01T13:38:15.158Z,99.86
2022-10-01T13:40:43.192Z,99.91
2022-10-01T13:43:19.240Z,100.00
2022-10-01T13:45:48.579Z,99.80
2022-10-01T13:48:23.429Z,99.19
2022-10-01T13:50:58.453Z,98.52
2022-10-01T13:53:28.868Z,97.60
2022-10-01T13:55:57.057Z,93.87
2022-10-01T13:58:34.148Z,92.00
2022-10-01T14:01:04.213Z,90.11
2022-10-01T14:03:44.188Z,90.11
2022-10-01T14:06:18.927Z,88.93
2022-10-01T14:08:51.493Z,87.69
2022-10-01T14:11:42.139Z,87.24
2022-10-01T14:14:27.673Z,86.79
2022-10-01T14:16:56.373Z,86.17
2022-10-01T14:19:28.397Z,84.49
2022-10-01T14:22:14.769Z,85.04
2022-10-01T14:25:07.577Z,86.25
2022-10-01T14:27:45.930Z,85.07
2022-10-01T14:30:16.524Z,85.27
2022-10-01T14:33:04.004Z,85.27
2022-10-01T14:35:36.305Z,85.33
2022-10-01T14:38:06.244Z,85.03
2022-10-01T14:40:39.201Z,84.58
2022-10-01T14:43:17.425Z,84.85
2022-10-01T14:45:56.966Z,85.00
2022-10-01T14:48:25.457Z,85.16
2022-10-01T14:50:56.783Z,85.83
2022-10-01T14:53:27.852Z,85.74
2022-10-01T14:55:57.993Z,86.19
2022-10-01T14:58:34.469Z,87.45
2022-10-01T15:01:02.795Z,87.18
2022-10-01T15:03:37.774Z,87.62
2022-10-01T15:06:14.736Z,90.29
2022-10-01T15:08:44.506Z,90.20
2022-10-01T15:11:15.656Z,91.12
2022-10-01T15:13:47.352Z,91.32
2022-10-01T15:16:17.497Z,90.87
2022-10-01T15:18:47.967Z,91.53
2022-10-01T15:21:22.057Z,91.90
2022-10-01T15:23:50.180Z,92.58
2022-10-01T15:26:23.485Z,92.92
2022-10-01T15:28:51.365Z,93.49
2022-10-01T15:31:20.134Z,93.24
2022-10-01T15:33:48.164Z,94.44
2022-10-01T15:36:19.988Z,93.39
2022-10-01T15:38:50.520Z,94.23
2022-10-01T15:41:32.665Z,94.51
2022-10-01T15:44:05.141Z,95.64
2022-10-01T15:46:35.681Z,96.22
2022-10-01T15:49:20.822Z,98.67
2022-10-01T15:52:07.613Z,99.84
2022-10-01T15:54:36.535Z,100.00
2022-10-01T15:57:05.442Z,100.00
2022-10-01T15:59:34.892Z,100.00
2022-10-01T16:02:09.516Z,100.00
2022-10-01T16:04:37.510Z,100.00
2022-10-01T16:07:06.620Z,100.00
2022-10-01T16:09:34.313Z,100.00
2022-10-01T16:12:06.787Z,100.00
2022-10-01T16:14:39.299Z,100.00
2022-10-01T16:17:29.245Z,100.00
2022-10-01T16:19:59.177Z,100.00
2022-10-01T16:22:31.711Z,100.00
2022-10-01T16:25:07.897Z,100.00
2022-10-01T16:27:45.404Z,100.00
2022-10-01T16:30:21.148Z,100.00
2022-10-01T16:32:49.439Z,100.00
2022-10-01T16:35:19.721Z,100.00
2022-10-01T16:37:50.248Z,100.00
2022-10-01T16:40:19.179Z,100.00
2022-10-01T16:42:49.395Z,100.00
2022-10-01T16:45:19.317Z,100.00
2022-10-01T16:47:47.465Z,100.00
2022-10-01T16:50:17.590Z,100.00
2022-10-01T16:52:45.668Z,100.00
2022-10-01T16:55:22.503Z,100.00
2022-10-01T16:57:50.821Z,100.00
2022-10-01T17:00:21.494Z,100.00
2022-10-01T17:02:49.444Z,100.00
2022-10-01T17:05:19.951Z,100.00
2022-10-01T17:07:47.912Z,100.00
2022-10-01T17:10:18.575Z,100.00
2022-10-01T17:12:47.806Z,100.00
2022-10-01T17:15:18.202Z,100.00
2022-10-01T17:17:46.009Z,100.00
2022-10-01T17:20:14.710Z,100.00
2022-10-01T17:22:43.559Z,100.00
2022-10-01T17:25:15.988Z,100.00
2022-10-01T17:27:45.386Z,100.00
2022-10-01T17:30:13.464Z,100.00
2022-10-01T17:32:43.011Z,100.00
2022-10-01T17:35:11.461Z,100.00
2022-10-01T17:37:39.535Z,100.00
2022-10-01T17:40:09.261Z,100.00
2022-10-01T17:42:37.296Z,100.00
2022-10-01T17:45:09.444Z,100.00
2022-10-01T17:47:37.374Z,100.00
2022-10-01T17:50:05.782Z,100.00
2022-10-01T17:52:33.584Z,100.00
2022-10-01T17:55:01.391Z,100.00
2022-10-01T17:57:29.092Z,100.00
2022-10-01T17:59:56.851Z,100.00
2022-10-01T18:02:42.922Z,100.00
2022-10-01T18:05:12.610Z,100.00
2022-10-01T18:07:40.937Z,100.00
2022-10-01T18:10:11.347Z,100.00
2022-10-01T18:12:39.147Z,100.00
2022-10-01T18:15:07.925Z,100.00
2022-10-01T18:17:42.924Z,100.00
2022-10-01T18:20:11.353Z,100.00
2022-10-01T18:22:39.244Z,100.00
2022-10-01T18:25:07.454Z,100.00
2022-10-01T18:27:35.345Z,100.00
2022-10-01T18:30:10.138Z,100.00
2022-10-01T18:32:43.532Z,100.00
2022-10-01T18:35:20.503Z,100.00
2022-10-01T18:37:52.542Z,100.00
2022-10-01T18:40:22.701Z,100.00
2022-10-01T18:42:57.775Z,100.00
2022-10-01T18:45:45.699Z,100.00
2022-10-01T18:48:36.446Z,100.00
2022-10-01T18:51:17.536Z,100.00
2022-10-01T18:54:05.192Z,100.00
2022-10-01T18:56:36.432Z,100.00
2022-10-01T18:59:35.695Z,100.00
2022-10-01T19:02:20.919Z,100.00
2022-10-01T19:05:37.085Z,100.00
2022-10-01T19:08:18.813Z,100.00
2022-10-01T19:10:51.407Z,100.00
2022-10-01T19:13:26.004Z,100.00
2022-10-01T19:16:05.509Z,100.00
2022-10-01T19:18:48.123Z,100.00
2022-10-01T19:21:26.201Z,100.00
2022-10-01T19:24:33.556Z,100.00
2022-10-01T19:27:10.932Z,100.00
2022-10-01T19:30:03.595Z,100.00
2022-10-01T19:32:39.587Z,100.00
2022-10-01T19:35:16.819Z,100.00
2022-10-01T19:37:51.296Z,100.00
2022-10-01T19:40:42.810Z,100.00
2022-10-01T19:43:18.746Z,100.00
2022-10-01T19:45:52.295Z,100.00
2022-10-01T19:48:26.256Z,100.00
2022-10-01T19:51:00.142Z,100.00
2022-10-01T19:53:34.461Z,100.00
2022-10-01T19:56:03.480Z,100.00
2022-10-01T19:58:33.733Z,100.00
2022-10-01T20:01:03.841Z,100.00
2022-10-01T20:03:37.846Z,100.00
2022-10-01T20:06:10.503Z,100.00
2022-10-01T20:08:46.858Z,100.00
2022-10-01T20:11:19.016Z,100.00
2022-10-01T20:14:37.879Z,100.00
2022-10-01T20:17:16.150Z,100.00
2022-10-01T20:20:11.265Z,100.00
2022-10-01T20:22:50.151Z,100.00
2022-10-01T20:25:44.825Z,100.00
2022-10-01T20:28:19.187Z,100.00
2022-10-01T20:30:58.636Z,100.00
2022-10-01T20:33:37.173Z,100.00
2022-10-01T20:36:15.255Z,100.00
2022-10-01T20:38:48.605Z,100.00
2022-10-01T20:41:20.663Z,100.00
2022-10-01T20:43:51.056Z,100.00
2022-10-01T20:46:34.618Z,100.00
2022-10-01T20:49:05.420Z,100.00
2022-10-01T20:51:40.194Z,100.00
2022-10-01T20:54:11.902Z,100.00
2022-10-01T20:56:45.449Z,100.00
2022-10-01T20:59:19.322Z,100.00
2022-10-01T21:01:59.208Z,100.00
2022-10-01T21:04:30.333Z,100.00
2022-10-01T21:07:06.190Z,100.00
2022-10-01T21:09:40.752Z,100.00
2022-10-01T21:12:17.853Z,100.00
2022-10-01T21:14:51.460Z,100.00
2022-10-01T21:17:39.272Z,100.00
2022-10-01T21:20:21.311Z,100.00
2022-10-01T21:23:03.280Z,100.00
2022-10-01T21:25:42.162Z,100.00
2022-10-01T21:28:18.591Z,100.00
2022-10-01T21:31:05.957Z,100.00
2022-10-01T21:33:35.147Z,100.00
2022-10-01T21:36:08.384Z,100.00
2022-10-01T21:38:44.643Z,100.00
2022-10-01T21:41:27.624Z,100.00
2022-10-01T21:44:10.677Z,100.00
2022-10-01T21:46:40.976Z,100.00
2022-10-01T21:49:12.843Z,100.00
2022-10-01T21:51:58.540Z,100.00
2022-10-01T21:54:45.743Z,100.00
2022-10-01T21:57:29.457Z,100.00
2022-10-01T22:00:11.035Z,100.00
2022-10-01T22:02:49.217Z,100.00
2022-10-01T22:05:24.574Z,100.00
2022-10-01T22:08:01.368Z,100.00
2022-10-01T22:10:35.581Z,100.00
2022-10-01T22:13:07.572Z,100.00
2022-10-01T22:15:41.756Z,100.00
2022-10-01T22:18:17.149Z,100.00
2022-10-01T22:20:47.350Z,100.00
2022-10-01T22:23:18.913Z,100.00
2022-10-01T22:25:53.521Z,100.00
2022-10-01T22:28:26.382Z,100.00
2022-10-01T22:31:00.554Z,100.00
2022-10-01T22:33:33.768Z,100.00
2022-10-01T22:36:09.000Z,100.00
2022-10-01T22:38:43.150Z,100.00
2022-10-01T22:41:18.035Z,100.00
2022-10-01T22:43:45.893Z,100.00
2022-10-01T22:46:49.978Z,100.00
2022-10-01T22:49:32.362Z,100.00
2022-10-01T22:52:13.674Z,100.00
2022-10-01T22:54:54.819Z,100.00
2022-10-01T22:57:43.731Z,100.00
2022-10-01T23:00:14.387Z,100.00
2022-10-01T23:02:45.287Z,100.00
2022-10-01T23:05:30.819Z,100.00
2022-10-01T23:08:06.527Z,100.00
2022-10-01T23:10:41.819Z,100.00
2022-10-01T23:13:20.329Z,100.00
2022-10-01T23:15:56.341Z,100.00
2022-10-01T23:18:37.558Z,100.00
2022-10-01T23:21:22.301Z,100.00
2022-10-01T23:23:58.361Z,100.00
2022-10-01T23:26:42.013Z,100.00
2022-10-01T23:29:35.676Z,100.00
2022-10-01T23:32:17.550Z,100.00
2022-10-01T23:35:05.828Z,100.00
2022-10-01T23:37:55.013Z,100.00
2022-10-01T23:40:26.701Z,100.00
2022-10-01T23:43:00.787Z,100.00
2022-10-01T23:45:44.080Z,100.00
2022-10-01T23:48:17.163Z,100.00
2022-10-01T23:50:52.412Z,100.00
2022-10-01T23:53:25.047Z,100.00
2022-10-01T23:56:18.505Z,100.00
2022-10-01T23:58:51.216Z,100.00
